createdAt,value
2017-12-29T00:00:42.292Z,96879.50
2017-12-29T00:01:46.945Z,96872.84
2017-12-29T00:02:51.815Z,96884.64
2017-12-29T00:03:56.683Z,96885.80
2017-12-29T00:05:01.395Z,96889.74
2017-12-29T00:06:07.023Z,96882.80
2017-12-29T00:07:11.883Z,96890.28
2017-12-29T00:08:16.660Z,96884.84
2017-12-29T00:09:21.691Z,96888.10
2017-12-29T00:10:26.482Z,96900.39
2017-12-29T00:11:31.680Z,96891.89
2017-12-29T00:12:36.486Z,96888.10
2017-12-29T00:13:41.338Z,96892.70
2017-12-29T00:14:46.007Z,96889.91
2017-12-29T00:15:50.989Z,96890.42
2017-12-29T00:16:55.664Z,96891.73
2017-12-29T00:18:00.367Z,96884.37
2017-12-29T00:19:05.041Z,96890.66
2017-12-29T00:20:09.716Z,96891.33
2017-12-29T00:21:14.977Z,96887.16
2017-12-29T00:22:20.087Z,96890.52
2017-12-29T00:23:24.715Z,96899.87
2017-12-29T00:24:29.423Z,96889.94
2017-12-29T00:25:34.057Z,96900.17
2017-12-29T00:26:38.783Z,96904.23
2017-12-29T00:27:43.862Z,96888.13
2017-12-29T00:28:49.363Z,96892.86
2017-12-29T00:29:54.160Z,96903.22
2017-12-29T00:30:58.893Z,96896.73
2017-12-29T00:32:03.495Z,96900.02
2017-12-29T00:33:08.151Z,96896.14
2017-12-29T00:34:12.701Z,96898.42
2017-12-29T00:35:17.570Z,96893.94
2017-12-29T00:36:22.131Z,96898.28
2017-12-29T00:37:26.680Z,96888.98
2017-12-29T00:38:31.523Z,96898.72
2017-12-29T00:39:36.396Z,96900.03
2017-12-29T00:40:41.839Z,96894.84
2017-12-29T00:41:46.750Z,96901.05
2017-12-29T00:42:51.386Z,96893.56
2017-12-29T00:43:56.127Z,96904.05
2017-12-29T00:45:00.847Z,96902.44
2017-12-29T00:46:05.646Z,96907.94
2017-12-29T00:47:10.454Z,96920.25
2017-12-29T00:48:15.572Z,96912.28
2017-12-29T00:49:21.188Z,96924.97
2017-12-29T00:50:25.947Z,96927.84
2017-12-29T00:51:30.617Z,96921.36
2017-12-29T00:52:35.382Z,96916.77
2017-12-29T00:53:40.085Z,96919.92
2017-12-29T00:54:45.197Z,96914.65
2017-12-29T00:55:49.974Z,96921.08
2017-12-29T00:56:55.312Z,96927.81
2017-12-29T00:58:00.089Z,96917.72
2017-12-29T00:59:04.797Z,96919.47
2017-12-29T01:00:09.524Z,96929.77
2017-12-29T01:01:14.463Z,96926.67
2017-12-29T01:02:19.140Z,96933.12
2017-12-29T01:03:23.896Z,96926.00
2017-12-29T01:04:28.621Z,96932.48
2017-12-29T01:05:33.418Z,96931.95
2017-12-29T01:06:38.123Z,96934.14
2017-12-29T01:07:43.100Z,96934.65
2017-12-29T01:08:48.785Z,96933.41
2017-12-29T01:09:53.522Z,96942.19
2017-12-29T01:10:58.259Z,96944.11
2017-12-29T01:12:02.984Z,96932.08
2017-12-29T01:13:08.593Z,96938.16
2017-12-29T01:14:13.590Z,96941.16
2017-12-29T01:15:18.242Z,96947.27
2017-12-29T01:16:23.024Z,96955.86
2017-12-29T01:17:27.777Z,96951.98
2017-12-29T01:18:32.428Z,96947.57
2017-12-29T01:19:37.366Z,96950.75
2017-12-29T01:20:42.188Z,96953.83
2017-12-29T01:21:47.017Z,96960.97
2017-12-29T01:22:51.793Z,96959.05
2017-12-29T01:23:56.627Z,96958.41
2017-12-29T01:25:01.405Z,96955.20
2017-12-29T01:26:06.532Z,96959.53
2017-12-29T01:27:11.301Z,96966.98
2017-12-29T01:28:16.081Z,96962.14
2017-12-29T01:29:20.687Z,96970.50
2017-12-29T01:30:25.408Z,96960.94
2017-12-29T01:31:30.005Z,96967.48
2017-12-29T01:32:35.083Z,96962.92
2017-12-29T01:33:39.873Z,96969.89
2017-12-29T01:34:44.382Z,96976.85
2017-12-29T01:35:50.007Z,96972.67
2017-12-29T01:36:54.623Z,96972.72
2017-12-29T01:37:59.188Z,96972.02
2017-12-29T01:39:04.686Z,96967.84
2017-12-29T01:40:09.255Z,96965.90
2017-12-29T01:41:14.026Z,96963.64
2017-12-29T01:42:18.665Z,96964.75
2017-12-29T01:43:23.346Z,96971.77
2017-12-29T01:44:28.054Z,96964.85
2017-12-29T01:45:33.961Z,96968.63
2017-12-29T01:46:38.599Z,96964.09
2017-12-29T01:47:47.459Z,96966.55
2017-12-29T01:48:52.129Z,96965.50
2017-12-29T01:49:56.862Z,96969.75
2017-12-29T01:51:01.539Z,96973.55
2017-12-29T01:52:06.505Z,96975.85
2017-12-29T01:53:11.267Z,96972.67
2017-12-29T01:54:16.088Z,96979.05
2017-12-29T01:55:20.844Z,96982.89
2017-12-29T01:56:25.627Z,96975.87
2017-12-29T01:57:30.322Z,96972.90
2017-12-29T01:58:35.320Z,96968.27
2017-12-29T01:59:39.837Z,96972.81
2017-12-29T02:00:44.935Z,96980.14
2017-12-29T02:01:49.450Z,96969.31
2017-12-29T02:02:54.168Z,96971.41
2017-12-29T02:03:58.885Z,96976.19
2017-12-29T02:05:03.860Z,96971.20
2017-12-29T02:06:08.545Z,96978.91
2017-12-29T02:07:13.332Z,96977.19
2017-12-29T02:08:17.989Z,96976.57
2017-12-29T02:09:22.647Z,96967.09
2017-12-29T02:10:27.324Z,96973.95
2017-12-29T02:11:32.376Z,96971.55
2017-12-29T02:12:37.064Z,96961.46
2017-12-29T02:13:41.714Z,96971.34
2017-12-29T02:14:46.375Z,96971.55
2017-12-29T02:15:51.016Z,96969.75
2017-12-29T02:16:55.724Z,96965.70
2017-12-29T02:18:00.659Z,96966.54
2017-12-29T02:19:05.214Z,96967.59
2017-12-29T02:20:09.816Z,96965.63
2017-12-29T02:21:14.667Z,96974.63
2017-12-29T02:22:19.330Z,96952.61
2017-12-29T02:23:23.985Z,96966.65
2017-12-29T02:24:28.982Z,96967.64
2017-12-29T02:25:33.657Z,96970.02
2017-12-29T02:26:38.390Z,96969.41
2017-12-29T02:27:43.022Z,96960.09
2017-12-29T02:28:47.712Z,96973.44
2017-12-29T02:29:52.401Z,96969.48
2017-12-29T02:30:57.603Z,96973.06
2017-12-29T02:32:02.326Z,96965.34
2017-12-29T02:33:07.272Z,96964.68
2017-12-29T02:34:11.980Z,96967.28
2017-12-29T02:35:16.577Z,96969.40
2017-12-29T02:36:21.285Z,96962.67
2017-12-29T02:37:26.211Z,96963.28
2017-12-29T02:38:30.957Z,96965.67
2017-12-29T02:39:35.640Z,96970.48
2017-12-29T02:40:40.443Z,96963.39
2017-12-29T02:41:45.139Z,96983.62
2017-12-29T02:42:49.826Z,96971.95
2017-12-29T02:43:54.895Z,96970.99
2017-12-29T02:44:59.643Z,96972.25
2017-12-29T02:46:05.111Z,96972.16
2017-12-29T02:47:22.903Z,96971.45
2017-12-29T02:48:27.678Z,96977.59
2017-12-29T02:49:32.402Z,96967.03
2017-12-29T02:50:37.453Z,96970.33
2017-12-29T02:51:42.236Z,96973.98
2017-12-29T02:52:47.943Z,96971.88
2017-12-29T02:53:52.689Z,96972.12
2017-12-29T02:54:57.446Z,96972.28
2017-12-29T02:56:02.329Z,96978.09
2017-12-29T02:57:07.449Z,96970.59
2017-12-29T02:58:12.212Z,96977.84
2017-12-29T02:59:17.001Z,96969.68
2017-12-29T03:00:21.762Z,96973.81
2017-12-29T03:01:26.504Z,96977.39
2017-12-29T03:02:31.347Z,96982.41
2017-12-29T03:03:36.485Z,96974.92
2017-12-29T03:04:41.265Z,96981.19
2017-12-29T03:05:45.924Z,96982.03
2017-12-29T03:06:50.644Z,96990.72
2017-12-29T03:07:55.352Z,96979.03
2017-12-29T03:09:00.090Z,96977.38
2017-12-29T03:10:06.134Z,96980.89
2017-12-29T03:11:10.862Z,96979.66
2017-12-29T03:12:15.667Z,96975.51
2017-12-29T03:13:20.454Z,96969.86
2017-12-29T03:14:25.115Z,96972.23
2017-12-29T03:15:29.918Z,96979.48
2017-12-29T03:16:35.536Z,96975.08
2017-12-29T03:17:40.318Z,96969.20
2017-12-29T03:18:45.119Z,96970.41
2017-12-29T03:19:49.959Z,96964.21
2017-12-29T03:20:54.759Z,96963.88
2017-12-29T03:21:59.524Z,96969.17
2017-12-29T03:23:04.639Z,96973.06
2017-12-29T03:24:09.502Z,96973.59
2017-12-29T03:25:14.368Z,96970.45
2017-12-29T03:26:19.158Z,96979.94
2017-12-29T03:27:23.891Z,96980.09
2017-12-29T03:28:28.699Z,96977.30
2017-12-29T03:29:33.802Z,96980.80
2017-12-29T03:30:38.523Z,96979.72
2017-12-29T03:31:43.380Z,96980.67
2017-12-29T03:32:48.373Z,96981.00
2017-12-29T03:33:53.011Z,96982.92
2017-12-29T03:34:58.301Z,96982.92
2017-12-29T03:36:03.219Z,96984.39
2017-12-29T03:37:07.836Z,96987.59
2017-12-29T03:38:12.430Z,96985.72
2017-12-29T03:39:17.203Z,96990.14
2017-12-29T03:40:22.435Z,96987.53
2017-12-29T03:41:27.417Z,96988.29
2017-12-29T03:42:32.251Z,96989.47
2017-12-29T03:43:37.050Z,96983.84
2017-12-29T03:44:41.780Z,96987.83
2017-12-29T03:45:46.541Z,96986.55
2017-12-29T03:46:51.321Z,96992.38
2017-12-29T03:47:56.433Z,96992.42
2017-12-29T03:49:01.280Z,96992.92
2017-12-29T03:50:06.126Z,96986.27
2017-12-29T03:51:10.941Z,96983.27
2017-12-29T03:52:15.527Z,96979.73
2017-12-29T03:53:20.115Z,96983.86
2017-12-29T03:54:25.072Z,96984.72
2017-12-29T03:55:29.798Z,96983.08
2017-12-29T03:56:34.414Z,96982.61
2017-12-29T03:57:39.187Z,96981.09
2017-12-29T03:58:43.956Z,96978.38
2017-12-29T03:59:48.763Z,96976.17
2017-12-29T04:00:53.679Z,96980.35
2017-12-29T04:01:58.271Z,96983.03
2017-12-29T04:03:02.855Z,96977.97
2017-12-29T04:04:07.492Z,96974.88
2017-12-29T04:05:12.102Z,96970.87
2017-12-29T04:06:16.845Z,96969.02
2017-12-29T04:07:22.137Z,96977.53
2017-12-29T04:08:27.851Z,96978.50
2017-12-29T04:09:32.661Z,96969.40
2017-12-29T04:10:37.443Z,96969.35
2017-12-29T04:11:42.198Z,96950.46
2017-12-29T04:12:46.961Z,96955.35
2017-12-29T04:13:52.040Z,96970.54
2017-12-29T04:14:56.800Z,96968.92
2017-12-29T04:16:01.553Z,96966.09
2017-12-29T04:17:06.355Z,96963.25
2017-12-29T04:18:11.087Z,96967.41
2017-12-29T04:19:15.836Z,96971.92
2017-12-29T04:20:21.138Z,96972.23
2017-12-29T04:21:25.889Z,96968.52
2017-12-29T04:22:30.679Z,96969.48
2017-12-29T04:23:35.439Z,96966.63
2017-12-29T04:24:40.219Z,96969.45
2017-12-29T04:25:45.010Z,96975.11
2017-12-29T04:26:50.045Z,96968.30
2017-12-29T04:27:54.812Z,96973.41
2017-12-29T04:28:59.592Z,96970.71
2017-12-29T04:30:04.373Z,96974.98
2017-12-29T04:31:09.133Z,96958.94
2017-12-29T04:32:13.921Z,96969.23
2017-12-29T04:33:18.951Z,96972.41
2017-12-29T04:34:23.701Z,96974.08
2017-12-29T04:35:28.384Z,96967.33
2017-12-29T04:36:33.084Z,96979.24
2017-12-29T04:37:37.738Z,96973.84
2017-12-29T04:38:42.422Z,96971.52
2017-12-29T04:39:47.213Z,96980.13
2017-12-29T04:40:51.703Z,96979.67
2017-12-29T04:41:56.211Z,96983.42
2017-12-29T04:43:00.715Z,96982.64
2017-12-29T04:44:05.248Z,96992.08
2017-12-29T04:45:09.775Z,96992.81
2017-12-29T04:46:14.568Z,96992.48
2017-12-29T04:47:19.191Z,96994.90
2017-12-29T04:48:23.801Z,96990.72
2017-12-29T04:49:28.442Z,96996.19
2017-12-29T04:50:33.231Z,96996.19
2017-12-29T04:51:38.039Z,96975.80
2017-12-29T04:52:43.714Z,96994.14
2017-12-29T04:53:48.571Z,97001.66
2017-12-29T04:54:53.342Z,96995.36
2017-12-29T04:55:58.301Z,96994.64
2017-12-29T04:57:03.081Z,97005.50
2017-12-29T04:58:07.862Z,96997.73
2017-12-29T04:59:13.057Z,96992.00
2017-12-29T05:00:17.881Z,97008.38
2017-12-29T05:01:22.637Z,96991.55
2017-12-29T05:02:27.442Z,96999.80
2017-12-29T05:03:32.224Z,96999.01
2017-12-29T05:04:36.987Z,96996.42
2017-12-29T05:05:42.197Z,97003.84
2017-12-29T05:06:46.960Z,97001.67
2017-12-29T05:07:51.752Z,97002.98
2017-12-29T05:08:56.621Z,97005.36
2017-12-29T05:10:01.344Z,96997.66
2017-12-29T05:11:06.134Z,97002.45
2017-12-29T05:12:11.234Z,96997.99
2017-12-29T05:13:16.164Z,97007.41
2017-12-29T05:14:21.047Z,97010.70
2017-12-29T05:15:25.893Z,97010.49
2017-12-29T05:16:30.764Z,97017.07
2017-12-29T05:17:35.617Z,97007.59
2017-12-29T05:18:40.933Z,97002.36
2017-12-29T05:19:45.920Z,97007.20
2017-12-29T05:20:50.789Z,97018.69
2017-12-29T05:21:55.483Z,97021.97
2017-12-29T05:23:00.489Z,97014.64
2017-12-29T05:24:06.125Z,97020.52
2017-12-29T05:25:12.109Z,97021.16
2017-12-29T05:26:17.344Z,97029.31
2017-12-29T05:27:22.346Z,97029.05
2017-12-29T05:28:27.400Z,97014.38
2017-12-29T05:29:32.424Z,97029.52
2017-12-29T05:30:38.355Z,97030.13
2017-12-29T05:31:43.749Z,97029.55
2017-12-29T05:32:48.736Z,97025.81
2017-12-29T05:33:53.693Z,97030.17
2017-12-29T05:34:58.896Z,97032.57
2017-12-29T05:36:03.846Z,97031.72
2017-12-29T05:37:08.844Z,97032.09
2017-12-29T05:38:14.129Z,97032.95
2017-12-29T05:39:19.123Z,97035.47
2017-12-29T05:40:24.095Z,97034.69
2017-12-29T05:41:29.089Z,97050.02
2017-12-29T05:42:34.055Z,97037.67
2017-12-29T05:43:39.045Z,97041.00
2017-12-29T05:44:44.486Z,97044.67
2017-12-29T05:45:49.472Z,97045.13
2017-12-29T05:46:54.618Z,97041.09
2017-12-29T05:47:59.672Z,97049.71
2017-12-29T05:49:04.490Z,97046.98
2017-12-29T05:50:09.381Z,97054.39
2017-12-29T05:51:14.610Z,97047.45
2017-12-29T05:52:19.571Z,97049.02
2017-12-29T05:53:24.515Z,97055.12
2017-12-29T05:54:29.445Z,97055.60
2017-12-29T05:55:34.378Z,97051.52
2017-12-29T05:56:39.363Z,97053.94
2017-12-29T05:57:44.706Z,97048.14
2017-12-29T05:58:49.669Z,97056.50
2017-12-29T05:59:54.674Z,97052.41
2017-12-29T06:00:59.576Z,97047.11
2017-12-29T06:02:04.627Z,97042.24
2017-12-29T06:03:09.614Z,97054.57
2017-12-29T06:04:14.589Z,97056.61
2017-12-29T06:05:19.523Z,97057.40
2017-12-29T06:06:24.521Z,97049.97
2017-12-29T06:07:29.750Z,97045.50
2017-12-29T06:08:34.657Z,97052.23
2017-12-29T06:09:39.571Z,97039.77
2017-12-29T06:10:44.788Z,97039.91
2017-12-29T06:11:49.666Z,97045.97
2017-12-29T06:12:54.739Z,97044.33
2017-12-29T06:13:59.693Z,97055.56
2017-12-29T06:15:05.737Z,97053.11
2017-12-29T06:16:10.670Z,97054.34
2017-12-29T06:17:16.085Z,97043.68
2017-12-29T06:18:21.108Z,97053.22
2017-12-29T06:19:26.106Z,97060.67
2017-12-29T06:20:32.283Z,97050.50
2017-12-29T06:21:37.221Z,97052.61
2017-12-29T06:22:42.716Z,97049.30
2017-12-29T06:23:48.061Z,97034.98
2017-12-29T06:24:52.994Z,97046.14
2017-12-29T06:25:58.052Z,97055.25
2017-12-29T06:27:03.024Z,97046.63
2017-12-29T06:28:08.048Z,97049.51
2017-12-29T06:29:13.072Z,97049.48
2017-12-29T06:30:18.540Z,97048.70
2017-12-29T06:31:23.472Z,97054.84
2017-12-29T06:32:28.469Z,97046.39
2017-12-29T06:33:33.413Z,97043.07
2017-12-29T06:34:40.302Z,97048.95
2017-12-29T06:35:45.261Z,97042.38
2017-12-29T06:36:50.445Z,97049.00
2017-12-29T06:37:55.480Z,97045.27
2017-12-29T06:39:00.520Z,97045.25
2017-12-29T06:40:04.877Z,97040.72
2017-12-29T06:41:09.950Z,97045.33
2017-12-29T06:42:15.903Z,97037.09
2017-12-29T06:43:21.389Z,97044.48
2017-12-29T06:44:26.398Z,97038.46
2017-12-29T06:45:31.414Z,97047.00
2017-12-29T06:46:36.407Z,97044.56
2017-12-29T06:47:41.389Z,97045.46
2017-12-29T06:48:46.423Z,97048.72
2017-12-29T06:49:51.849Z,97038.39
2017-12-29T06:50:56.950Z,97039.70
2017-12-29T06:52:01.947Z,97036.86
2017-12-29T06:53:06.945Z,97038.09
2017-12-29T06:54:11.786Z,97032.73
2017-12-29T06:55:16.774Z,97039.34
2017-12-29T06:56:21.873Z,97041.44
2017-12-29T06:57:26.821Z,97030.69
2017-12-29T06:58:31.836Z,97028.72
2017-12-29T06:59:36.852Z,97028.44
2017-12-29T07:00:41.848Z,97033.36
2017-12-29T07:01:47.843Z,97038.23
2017-12-29T07:02:53.157Z,97040.77
2017-12-29T07:03:58.419Z,97040.31
2017-12-29T07:05:03.510Z,97041.91
2017-12-29T07:06:08.500Z,97037.47
2017-12-29T07:07:13.468Z,97035.86
2017-12-29T07:08:18.464Z,97042.02
2017-12-29T07:09:23.793Z,97037.89
2017-12-29T07:10:28.729Z,97039.89
2017-12-29T07:11:33.671Z,97041.14
2017-12-29T07:12:38.567Z,97035.87
2017-12-29T07:13:43.844Z,97043.71
2017-12-29T07:14:48.794Z,97044.50
2017-12-29T07:15:54.056Z,97037.16
2017-12-29T07:17:00.551Z,97049.86
2017-12-29T07:18:05.502Z,97049.83
2017-12-29T07:19:10.437Z,97054.78
2017-12-29T07:20:15.425Z,97055.19
2017-12-29T07:21:20.373Z,97062.19
2017-12-29T07:22:25.672Z,97058.47
2017-12-29T07:23:30.683Z,97054.48
2017-12-29T07:24:35.624Z,97056.97
2017-12-29T07:25:40.533Z,97061.80
2017-12-29T07:26:45.429Z,97056.95
2017-12-29T07:27:50.273Z,97054.44
2017-12-29T07:28:55.357Z,97046.22
2017-12-29T07:30:00.286Z,97040.92
2017-12-29T07:31:05.085Z,97043.94
2017-12-29T07:32:10.076Z,97037.33
2017-12-29T07:33:15.063Z,97037.28
2017-12-29T07:34:20.773Z,97029.45
2017-12-29T07:35:26.032Z,97031.05
2017-12-29T07:36:31.022Z,97032.58
2017-12-29T07:37:35.953Z,97034.55
2017-12-29T07:38:41.001Z,97037.52
2017-12-29T07:39:45.914Z,97039.93
2017-12-29T07:40:50.763Z,97039.16
2017-12-29T07:41:55.924Z,97051.07
2017-12-29T07:43:00.718Z,97038.57
2017-12-29T07:44:05.508Z,97040.48
2017-12-29T07:45:10.415Z,97032.72
2017-12-29T07:46:15.187Z,97033.08
2017-12-29T07:47:20.642Z,97026.25
2017-12-29T07:48:26.700Z,97031.91
2017-12-29T07:49:31.485Z,97028.92
2017-12-29T07:50:36.497Z,97023.71
2017-12-29T07:51:41.291Z,97033.20
2017-12-29T07:52:47.073Z,97037.41
2017-12-29T07:53:51.794Z,97039.50
2017-12-29T07:54:56.905Z,97033.72
2017-12-29T07:56:02.414Z,97028.89
2017-12-29T07:57:07.220Z,97023.70
2017-12-29T07:58:12.628Z,97021.59
2017-12-29T07:59:17.608Z,97022.98
2017-12-29T08:00:22.478Z,97030.57
2017-12-29T08:01:28.271Z,97027.19
2017-12-29T08:02:33.172Z,97025.62
2017-12-29T08:03:38.025Z,97027.77
2017-12-29T08:04:42.864Z,97026.95
2017-12-29T08:05:47.870Z,97024.94
2017-12-29T08:06:52.712Z,97023.49
2017-12-29T08:07:57.997Z,97024.38
2017-12-29T08:09:02.966Z,97023.67
2017-12-29T08:10:07.926Z,97023.33
2017-12-29T08:11:13.867Z,97027.27
2017-12-29T08:12:18.812Z,97019.08
2017-12-29T08:13:23.963Z,97025.42
2017-12-29T08:14:29.760Z,97024.69
2017-12-29T08:15:34.759Z,97023.16
2017-12-29T08:16:39.786Z,97025.69
2017-12-29T08:17:44.844Z,97023.58
2017-12-29T08:18:49.844Z,97025.49
2017-12-29T08:19:54.836Z,97025.19
2017-12-29T08:21:00.280Z,97023.30
2017-12-29T08:22:05.286Z,97027.02
2017-12-29T08:23:10.291Z,97021.95
2017-12-29T08:24:15.372Z,97019.91
2017-12-29T08:25:20.375Z,97016.22
2017-12-29T08:26:25.353Z,97019.02
2017-12-29T08:27:30.777Z,97016.03
2017-12-29T08:28:35.824Z,97015.28
2017-12-29T08:29:40.762Z,97016.59
2017-12-29T08:30:45.757Z,97020.55
2017-12-29T08:31:50.867Z,97018.76
2017-12-29T08:32:55.789Z,97025.77
2017-12-29T08:34:01.099Z,97023.66
2017-12-29T08:35:06.061Z,97024.16
2017-12-29T08:36:11.085Z,97027.29
2017-12-29T08:37:16.103Z,97024.08
2017-12-29T08:38:21.116Z,97027.30
2017-12-29T08:39:26.134Z,97021.58
2017-12-29T08:40:31.390Z,97025.48
2017-12-29T08:41:37.324Z,97029.12
2017-12-29T08:42:42.332Z,97036.17
2017-12-29T08:43:47.809Z,97031.88
2017-12-29T08:44:52.798Z,97031.23
2017-12-29T08:45:57.764Z,97037.70
2017-12-29T08:47:03.806Z,97036.94
2017-12-29T08:48:08.822Z,97045.72
2017-12-29T08:49:13.815Z,97033.75
2017-12-29T08:50:18.675Z,97029.94
2017-12-29T08:51:23.587Z,97036.67
2017-12-29T08:52:28.446Z,97029.75
2017-12-29T08:53:33.698Z,97043.32
2017-12-29T08:54:38.633Z,97038.80
2017-12-29T08:55:43.472Z,97037.95
2017-12-29T08:56:48.259Z,97045.29
2017-12-29T08:57:53.178Z,97024.96
2017-12-29T08:58:58.525Z,97037.27
2017-12-29T09:00:03.689Z,97028.81
2017-12-29T09:01:08.585Z,97032.06
2017-12-29T09:02:13.497Z,97034.65
2017-12-29T09:03:18.404Z,97026.72
2017-12-29T09:04:23.264Z,97031.47
2017-12-29T09:05:28.171Z,97030.42
2017-12-29T09:06:33.502Z,97023.91
2017-12-29T09:07:38.510Z,97027.87
2017-12-29T09:08:43.788Z,97022.64
2017-12-29T09:09:48.826Z,97029.31
2017-12-29T09:10:53.766Z,97033.11
2017-12-29T09:11:58.858Z,97038.83
2017-12-29T09:13:04.142Z,97022.38
2017-12-29T09:14:09.118Z,97026.58
2017-12-29T09:15:14.078Z,97025.72
2017-12-29T09:16:19.173Z,97017.94
2017-12-29T09:17:24.229Z,97026.89
2017-12-29T09:18:29.276Z,97020.13
2017-12-29T09:19:34.832Z,97015.86
2017-12-29T09:20:40.347Z,97011.90
2017-12-29T09:21:45.294Z,97018.96
2017-12-29T09:22:50.318Z,97012.09
2017-12-29T09:23:55.331Z,97017.34
2017-12-29T09:25:00.376Z,97016.93
2017-12-29T09:26:05.609Z,97003.00
2017-12-29T09:27:10.597Z,97012.45
2017-12-29T09:28:15.527Z,97005.52
2017-12-29T09:29:20.444Z,97004.45
2017-12-29T09:30:25.449Z,97024.44
2017-12-29T09:31:30.355Z,97020.73
2017-12-29T09:32:35.484Z,97000.61
2017-12-29T09:33:40.433Z,96999.83
2017-12-29T09:34:45.406Z,97008.78
2017-12-29T09:35:50.327Z,97020.13
2017-12-29T09:36:55.898Z,97007.91
2017-12-29T09:38:00.773Z,97025.55
2017-12-29T09:39:06.603Z,97010.04
2017-12-29T09:40:11.521Z,97006.29
2017-12-29T09:41:16.346Z,96998.17
2017-12-29T09:42:21.122Z,97020.77
2017-12-29T09:43:25.954Z,97011.86
2017-12-29T09:44:30.685Z,97012.87
2017-12-29T09:45:35.775Z,97004.61
2017-12-29T09:46:40.615Z,97009.70
2017-12-29T09:47:45.554Z,96996.23
2017-12-29T09:48:50.504Z,96974.02
2017-12-29T09:49:55.474Z,97019.00
2017-12-29T09:51:00.425Z,96994.15
2017-12-29T09:52:05.688Z,97000.18
2017-12-29T09:53:10.663Z,96994.02
2017-12-29T09:54:15.663Z,96993.31
2017-12-29T09:55:20.696Z,96973.68
2017-12-29T09:56:25.705Z,96975.31
2017-12-29T09:57:30.704Z,96974.30
2017-12-29T09:58:35.750Z,96975.11
2017-12-29T09:59:40.739Z,96969.95
2017-12-29T10:00:45.607Z,96948.98
2017-12-29T10:01:50.432Z,96976.23
2017-12-29T10:02:55.233Z,96961.03
2017-12-29T10:04:00.493Z,96953.55
2017-12-29T10:05:05.027Z,96952.63
2017-12-29T10:06:10.033Z,96949.52
2017-12-29T10:07:15.039Z,96943.58
2017-12-29T10:08:20.689Z,96964.55
2017-12-29T10:09:25.643Z,96965.58
2017-12-29T10:10:31.125Z,96952.98
2017-12-29T10:11:36.178Z,96921.38
2017-12-29T10:12:41.474Z,96929.61
2017-12-29T10:13:46.451Z,96933.48
2017-12-29T10:14:51.392Z,96935.08
2017-12-29T10:15:56.350Z,96933.70
2017-12-29T10:17:02.019Z,96946.21
2017-12-29T10:18:06.919Z,96963.33
2017-12-29T10:19:11.778Z,96947.39
2017-12-29T10:20:16.979Z,96929.11
2017-12-29T10:21:22.537Z,96948.70
2017-12-29T10:22:27.644Z,96939.52
2017-12-29T10:23:34.080Z,96938.69
2017-12-29T10:24:39.091Z,96940.67
2017-12-29T10:25:44.088Z,96931.52
2017-12-29T10:26:49.126Z,96923.66
2017-12-29T10:27:54.119Z,96942.89
2017-12-29T10:28:59.101Z,96938.87
2017-12-29T10:30:04.413Z,96932.08
2017-12-29T10:31:09.593Z,96920.56
2017-12-29T10:32:14.570Z,96943.83
2017-12-29T10:33:19.552Z,96934.12
2017-12-29T10:34:24.725Z,96914.72
2017-12-29T10:35:29.770Z,96908.96
2017-12-29T10:36:35.037Z,96920.21
2017-12-29T10:37:40.050Z,96923.72
2017-12-29T10:38:45.133Z,96916.88
2017-12-29T10:39:50.181Z,96923.08
2017-12-29T10:40:55.557Z,96915.85
2017-12-29T10:42:00.599Z,96916.53
2017-12-29T10:43:05.952Z,96907.70
2017-12-29T10:44:11.048Z,96908.01
2017-12-29T10:45:17.007Z,96926.22
2017-12-29T10:46:22.017Z,96916.69
2017-12-29T10:47:27.802Z,96917.38
2017-12-29T10:48:32.794Z,96916.75
2017-12-29T10:49:38.984Z,96921.37
2017-12-29T10:50:43.976Z,96921.46
2017-12-29T10:51:48.965Z,96911.02
2017-12-29T10:52:54.173Z,96915.84
2017-12-29T10:53:59.162Z,96909.44
2017-12-29T10:55:04.169Z,96892.08
2017-12-29T10:56:10.176Z,96903.95
2017-12-29T10:57:15.227Z,96899.87
2017-12-29T10:58:20.309Z,96900.50
2017-12-29T10:59:25.366Z,96915.77
2017-12-29T11:00:30.411Z,96914.03
2017-12-29T11:01:35.381Z,96912.59
2017-12-29T11:02:40.672Z,96919.46
2017-12-29T11:03:45.718Z,96898.09
2017-12-29T11:04:50.810Z,96887.05
2017-12-29T11:05:55.807Z,96921.35
2017-12-29T11:07:00.814Z,96888.05
2017-12-29T11:08:05.811Z,96902.31
2017-12-29T11:09:11.091Z,96909.71
2017-12-29T11:10:16.169Z,96919.59
2017-12-29T11:11:21.182Z,96913.97
2017-12-29T11:12:26.140Z,96903.62
2017-12-29T11:13:31.126Z,96906.02
2017-12-29T11:14:36.228Z,96918.85
2017-12-29T11:15:41.647Z,96911.91
2017-12-29T11:16:46.715Z,96893.09
2017-12-29T11:17:51.667Z,96877.83
2017-12-29T11:18:56.715Z,96900.89
2017-12-29T11:20:03.246Z,96933.95
2017-12-29T11:21:08.263Z,96887.61
2017-12-29T11:22:13.672Z,96913.96
2017-12-29T11:23:18.729Z,96897.10
2017-12-29T11:24:23.626Z,96911.10
2017-12-29T11:25:28.703Z,96905.96
2017-12-29T11:26:33.622Z,96901.47
2017-12-29T11:27:38.594Z,96892.52
2017-12-29T11:28:43.789Z,96899.48
2017-12-29T11:29:48.649Z,96900.81
2017-12-29T11:30:53.676Z,96877.45
2017-12-29T11:31:58.649Z,96878.08
2017-12-29T11:33:03.658Z,96892.02
2017-12-29T11:34:08.908Z,96870.55
2017-12-29T11:35:14.596Z,96877.63
2017-12-29T11:36:19.572Z,96872.25
2017-12-29T11:37:24.615Z,96853.87
2017-12-29T11:38:29.625Z,96874.38
2017-12-29T11:39:35.232Z,96857.69
2017-12-29T11:40:41.200Z,96858.13
2017-12-29T11:41:46.558Z,96859.06
2017-12-29T11:42:51.946Z,96858.73
2017-12-29T11:43:57.030Z,96853.86
2017-12-29T11:45:02.009Z,96844.64
2017-12-29T11:46:07.783Z,96843.70
2017-12-29T11:47:12.770Z,96857.58
2017-12-29T11:48:18.225Z,96849.90
2017-12-29T11:49:23.224Z,96833.45
2017-12-29T11:50:28.238Z,96835.97
2017-12-29T11:51:33.273Z,96835.63
2017-12-29T11:52:38.315Z,96829.78
2017-12-29T11:53:43.409Z,96829.34
2017-12-29T11:54:48.902Z,96836.84
2017-12-29T11:55:53.903Z,96854.43
2017-12-29T11:56:59.349Z,96832.25
2017-12-29T11:58:04.550Z,96832.23
2017-12-29T11:59:09.572Z,96813.55
2017-12-29T12:00:14.785Z,96814.91
2017-12-29T12:01:20.232Z,96808.13
2017-12-29T12:02:25.257Z,96805.00
2017-12-29T12:03:30.395Z,96799.58
2017-12-29T12:04:35.876Z,96787.59
2017-12-29T12:05:40.906Z,96790.63
2017-12-29T12:06:45.854Z,96786.72
2017-12-29T12:07:51.164Z,96783.81
2017-12-29T12:08:56.201Z,96778.39
2017-12-29T12:10:01.234Z,96782.33
2017-12-29T12:11:06.315Z,96781.68
2017-12-29T12:12:11.283Z,96781.81
2017-12-29T12:13:16.876Z,96773.05
2017-12-29T12:14:22.885Z,96775.92
2017-12-29T12:15:28.011Z,96763.81
2017-12-29T12:16:32.981Z,96762.20
2017-12-29T12:17:38.150Z,96763.78
2017-12-29T12:18:43.125Z,96771.90
2017-12-29T12:19:48.130Z,96776.95
2017-12-29T12:20:54.448Z,96757.84
2017-12-29T12:21:59.281Z,96763.79
2017-12-29T12:23:04.143Z,96764.53
2017-12-29T12:24:08.959Z,96752.45
2017-12-29T12:25:13.753Z,96767.03
2017-12-29T12:26:18.616Z,96747.19
2017-12-29T12:27:23.879Z,96758.14
2017-12-29T12:28:28.902Z,96751.70
2017-12-29T12:29:34.311Z,96747.53
2017-12-29T12:30:39.320Z,96743.88
2017-12-29T12:31:44.404Z,96744.53
2017-12-29T12:32:49.376Z,96737.08
2017-12-29T12:33:54.680Z,96735.19
2017-12-29T12:34:59.730Z,96738.03
2017-12-29T12:36:04.731Z,96733.22
2017-12-29T12:37:09.744Z,96743.73
2017-12-29T12:38:14.722Z,96751.33
2017-12-29T12:39:19.745Z,96753.63
2017-12-29T12:40:25.093Z,96732.27
2017-12-29T12:41:30.082Z,96727.62
2017-12-29T12:42:35.072Z,96727.19
2017-12-29T12:43:40.667Z,96730.35